createdAt,value
2018-05-11T00:00:07.986Z,9.58
2018-05-11T00:02:39.944Z,9.56
2018-05-11T00:05:12.263Z,9.63
2018-05-11T00:07:43.750Z,9.56
2018-05-11T00:10:16.044Z,9.56
2018-05-11T00:12:47.686Z,9.59
2018-05-11T00:15:19.766Z,9.61
2018-05-11T00:17:52.920Z,9.68
2018-05-11T00:20:23.725Z,9.64
2018-05-11T00:22:56.838Z,9.57
2018-05-11T00:25:28.640Z,9.56
2018-05-11T00:28:00.517Z,9.50
2018-05-11T00:30:32.590Z,9.51
2018-05-11T00:33:04.720Z,9.50
2018-05-11T00:35:36.961Z,9.49
2018-05-11T00:38:07.486Z,9.49
2018-05-11T00:40:39.166Z,9.40
2018-05-11T00:43:11.034Z,9.41
2018-05-11T00:45:42.357Z,9.42
2018-05-11T00:48:13.802Z,9.39
2018-05-11T00:50:44.894Z,9.38
2018-05-11T00:53:16.432Z,9.32
2018-05-11T00:55:54.709Z,9.32
2018-05-11T00:58:26.983Z,9.29
2018-05-11T01:00:58.094Z,9.38
2018-05-11T01:03:30.717Z,9.40
2018-05-11T01:06:01.645Z,9.42
2018-05-11T01:08:33.676Z,9.55
2018-05-11T01:11:04.994Z,9.58
2018-05-11T01:13:36.390Z,9.62
2018-05-11T01:16:08.212Z,9.60
2018-05-11T01:18:39.961Z,9.59
2018-05-11T01:21:12.407Z,9.56
2018-05-11T01:23:43.615Z,9.51
2018-05-11T01:26:15.764Z,9.46
2018-05-11T01:28:47.351Z,9.45
2018-05-11T01:31:18.908Z,9.54
2018-05-11T01:33:49.350Z,9.48
2018-05-11T01:36:20.678Z,9.54
2018-05-11T01:38:52.696Z,9.54
2018-05-11T01:41:24.881Z,9.56
2018-05-11T01:43:55.614Z,9.66
2018-05-11T01:46:27.345Z,9.63
2018-05-11T01:49:00.103Z,9.66
2018-05-11T01:51:32.268Z,9.68
2018-05-11T01:54:04.297Z,9.75
2018-05-11T01:56:35.778Z,9.75
2018-05-11T01:59:06.871Z,9.80
2018-05-11T02:01:38.468Z,9.88
2018-05-11T02:04:10.696Z,9.92
2018-05-11T02:06:42.102Z,9.91
2018-05-11T02:09:15.096Z,9.99
2018-05-11T02:11:48.659Z,10.02
2018-05-11T02:14:20.230Z,10.09
2018-05-11T02:16:51.042Z,10.10
2018-05-11T02:19:23.916Z,10.13
2018-05-11T02:21:55.526Z,10.14
2018-05-11T02:24:27.072Z,10.09
2018-05-11T02:26:58.610Z,10.00
2018-05-11T02:29:30.599Z,9.97
2018-05-11T02:32:02.117Z,10.02
2018-05-11T02:34:34.774Z,10.01
2018-05-11T02:37:07.196Z,10.00
2018-05-11T02:39:38.948Z,9.99
2018-05-11T02:42:10.393Z,9.99
2018-05-11T02:44:42.004Z,10.03
2018-05-11T02:47:13.778Z,10.02
2018-05-11T02:49:46.022Z,9.93
2018-05-11T02:52:18.064Z,9.87
2018-05-11T02:54:49.909Z,9.82
2018-05-11T02:57:22.913Z,9.76
2018-05-11T02:59:53.537Z,9.73
2018-05-11T03:02:25.466Z,9.70
2018-05-11T03:04:57.590Z,9.72
2018-05-11T03:07:28.699Z,9.76
2018-05-11T03:10:01.433Z,9.77
2018-05-11T03:12:33.533Z,9.82
2018-05-11T03:15:07.725Z,9.87
2018-05-11T03:17:39.578Z,9.90
2018-05-11T03:20:11.450Z,9.96
2018-05-11T03:22:44.538Z,9.99
2018-05-11T03:25:15.036Z,9.92
2018-05-11T03:27:46.690Z,10.02
2018-05-11T03:30:18.105Z,9.96
2018-05-11T03:32:49.635Z,9.96
2018-05-11T03:35:21.883Z,9.90
2018-05-11T03:37:54.401Z,9.84
2018-05-11T03:40:26.244Z,9.84
2018-05-11T03:42:57.854Z,9.79
2018-05-11T03:45:33.592Z,9.77
2018-05-11T03:48:05.161Z,9.75
2018-05-11T03:50:36.307Z,9.78
2018-05-11T03:53:08.701Z,9.86
2018-05-11T03:55:40.659Z,9.91
2018-05-11T03:58:11.842Z,9.96
2018-05-11T04:00:42.156Z,9.95
2018-05-11T04:03:24.989Z,10.05
2018-05-11T04:06:08.380Z,10.07
2018-05-11T04:08:48.181Z,10.03
2018-05-11T04:11:21.673Z,10.07
2018-05-11T04:13:52.602Z,10.16
2018-05-11T04:16:24.767Z,10.17
2018-05-11T04:18:56.476Z,10.15
2018-05-11T04:21:28.311Z,10.17
2018-05-11T04:24:00.151Z,10.25
2018-05-11T04:26:31.000Z,10.31
2018-05-11T04:29:01.603Z,10.43
2018-05-11T04:31:33.898Z,10.51
2018-05-11T04:34:04.392Z,10.54
2018-05-11T04:36:37.807Z,10.57
2018-05-11T04:39:08.945Z,10.66
2018-05-11T04:41:41.052Z,10.62
2018-05-11T04:44:12.613Z,10.66
2018-05-11T04:46:43.594Z,10.77
2018-05-11T04:49:15.507Z,10.67
2018-05-11T04:51:44.946Z,10.63
2018-05-11T04:54:18.104Z,10.68
2018-05-11T04:56:49.520Z,10.73
2018-05-11T04:59:21.389Z,10.77
2018-05-11T05:01:53.900Z,10.97
2018-05-11T05:04:26.065Z,11.08
2018-05-11T05:06:57.159Z,11.15
2018-05-11T05:09:28.972Z,11.22
2018-05-11T05:12:01.541Z,11.26
2018-05-11T05:14:33.178Z,11.34
2018-05-11T05:17:04.805Z,11.48
2018-05-11T05:19:36.217Z,11.41
2018-05-11T05:22:07.811Z,11.46
2018-05-11T05:24:39.910Z,11.69
2018-05-11T05:27:11.768Z,11.82
2018-05-11T05:29:43.268Z,11.86
2018-05-11T05:32:15.290Z,11.85
2018-05-11T05:34:46.823Z,12.12
2018-05-11T05:37:18.330Z,12.16
2018-05-11T05:39:50.399Z,12.15
2018-05-11T05:42:21.881Z,12.15
2018-05-11T05:44:53.563Z,12.06
2018-05-11T05:47:24.320Z,11.93
2018-05-11T05:49:55.721Z,12.09
2018-05-11T05:52:25.517Z,12.19
2018-05-11T05:54:56.821Z,12.09
2018-05-11T05:57:29.830Z,12.58
2018-05-11T06:00:02.042Z,12.84
2018-05-11T06:02:35.958Z,12.85
2018-05-11T06:05:07.637Z,12.80
2018-05-11T06:07:37.076Z,12.76
2018-05-11T06:10:08.316Z,12.96
2018-05-11T06:12:39.289Z,12.96
2018-05-11T06:15:09.636Z,13.28
2018-05-11T06:17:40.925Z,13.73
2018-05-11T06:20:12.937Z,14.09
2018-05-11T06:22:43.919Z,14.27
2018-05-11T06:25:15.496Z,14.29
2018-05-11T06:27:47.183Z,14.14
2018-05-11T06:30:17.937Z,14.29
2018-05-11T06:32:48.837Z,14.47
2018-05-11T06:35:19.447Z,14.54
2018-05-11T06:37:51.147Z,14.60
2018-05-11T06:40:22.676Z,14.80
2018-05-11T06:42:54.474Z,14.79
2018-05-11T06:45:26.077Z,14.65
2018-05-11T06:47:57.477Z,14.60
2018-05-11T06:50:28.450Z,14.70
2018-05-11T06:52:59.575Z,14.61
2018-05-11T06:55:30.741Z,14.69
2018-05-11T06:58:03.486Z,14.79
2018-05-11T07:00:35.857Z,15.01
2018-05-11T07:03:10.625Z,15.00
2018-05-11T07:05:43.285Z,15.14
2018-05-11T07:08:14.762Z,15.16
2018-05-11T07:10:46.989Z,15.30
2018-05-11T07:13:19.537Z,15.30
2018-05-11T07:15:50.604Z,15.29
2018-05-11T07:18:21.814Z,15.70
2018-05-11T07:20:53.244Z,16.11
2018-05-11T07:23:24.878Z,16.47
2018-05-11T07:25:57.717Z,16.58
2018-05-11T07:28:28.892Z,16.69
2018-05-11T07:31:00.137Z,16.89
2018-05-11T07:33:31.272Z,16.82
2018-05-11T07:36:02.533Z,16.75
2018-05-11T07:38:33.512Z,16.97
2018-05-11T07:41:05.229Z,16.79
2018-05-11T07:43:37.117Z,16.76
2018-05-11T07:46:08.644Z,16.66
2018-05-11T07:48:41.272Z,16.98
2018-05-11T07:51:12.895Z,17.11
2018-05-11T07:53:43.995Z,16.65
2018-05-11T07:56:16.797Z,16.49
2018-05-11T07:58:48.116Z,16.25
2018-05-11T08:01:19.145Z,16.54
2018-05-11T08:03:49.097Z,17.39
2018-05-11T08:06:19.827Z,17.45
2018-05-11T08:08:51.539Z,17.92
2018-05-11T08:11:22.894Z,18.39
2018-05-11T08:13:54.556Z,18.35
2018-05-11T08:16:26.041Z,18.19
2018-05-11T08:18:56.687Z,17.93
2018-05-11T08:21:27.787Z,18.20
2018-05-11T08:24:01.425Z,17.97
2018-05-11T08:26:32.557Z,18.18
2018-05-11T08:29:04.976Z,18.61
2018-05-11T08:31:35.887Z,18.76
2018-05-11T08:34:07.347Z,19.09
2018-05-11T08:36:38.583Z,19.39
2018-05-11T08:39:10.981Z,19.77
2018-05-11T08:41:42.791Z,20.10
2018-05-11T08:44:15.745Z,19.79
2018-05-11T08:46:46.442Z,19.46
2018-05-11T08:49:18.536Z,18.74
2018-05-11T08:51:52.368Z,18.51
2018-05-11T08:54:23.732Z,18.94
2018-05-11T08:56:55.776Z,19.41
2018-05-11T08:59:27.056Z,19.99
2018-05-11T09:01:57.980Z,20.03
2018-05-11T09:04:29.201Z,20.52
2018-05-11T09:07:01.254Z,21.75
2018-05-11T09:09:32.217Z,21.63
2018-05-11T09:12:05.015Z,21.82
2018-05-11T09:14:36.357Z,22.09
2018-05-11T09:17:08.825Z,22.66
2018-05-11T09:19:42.043Z,21.66
2018-05-11T09:22:13.581Z,22.55
2018-05-11T09:24:45.677Z,24.32
2018-05-11T09:27:17.680Z,25.85
2018-05-11T09:29:49.712Z,24.48
2018-05-11T09:32:23.134Z,25.21
2018-05-11T09:34:55.298Z,25.34
2018-05-11T09:37:26.495Z,26.90
2018-05-11T09:39:58.301Z,27.49
2018-05-11T09:42:29.759Z,27.89
2018-05-11T09:45:01.051Z,28.08
2018-05-11T09:47:31.136Z,27.43
2018-05-11T09:50:03.679Z,28.39
2018-05-11T09:52:36.293Z,30.67
2018-05-11T09:55:08.317Z,31.67
2018-05-11T09:57:39.983Z,27.51
2018-05-11T10:00:13.247Z,28.63
2018-05-11T10:02:45.618Z,27.57
2018-05-11T10:05:17.453Z,26.69
2018-05-11T10:07:49.770Z,27.05
2018-05-11T10:10:19.774Z,26.92
2018-05-11T10:12:52.012Z,26.98
2018-05-11T10:15:22.326Z,28.35
2018-05-11T10:17:53.420Z,29.71
2018-05-11T10:20:24.445Z,27.09
2018-05-11T10:22:56.138Z,25.98
2018-05-11T10:25:27.506Z,26.16
2018-05-11T10:27:59.338Z,25.91
2018-05-11T10:30:30.419Z,25.21
2018-05-11T10:33:01.548Z,25.96
2018-05-11T10:35:33.080Z,28.11
2018-05-11T10:38:03.289Z,27.99
2018-05-11T10:40:34.982Z,29.14
2018-05-11T10:43:07.493Z,30.36
2018-05-11T10:45:39.484Z,31.01
2018-05-11T10:48:11.026Z,32.28
2018-05-11T10:50:42.170Z,31.52
2018-05-11T10:53:13.402Z,34.18
2018-05-11T10:55:45.374Z,33.64
2018-05-11T10:58:17.037Z,34.04
2018-05-11T11:00:48.071Z,35.06
2018-05-11T11:03:19.776Z,35.66
2018-05-11T11:05:51.918Z,30.56
2018-05-11T11:08:24.434Z,29.74
2018-05-11T11:10:56.212Z,33.02
2018-05-11T11:13:28.925Z,35.16
2018-05-11T11:16:00.517Z,35.79
2018-05-11T11:18:33.169Z,36.44
2018-05-11T11:21:05.243Z,36.06
2018-05-11T11:23:38.828Z,35.98
2018-05-11T11:26:10.775Z,37.77
2018-05-11T11:28:40.988Z,36.40
2018-05-11T11:31:11.748Z,35.59
2018-05-11T11:33:43.937Z,37.10
2018-05-11T11:36:14.857Z,37.33
2018-05-11T11:38:45.735Z,38.59
2018-05-11T11:41:17.086Z,36.12
2018-05-11T11:43:48.853Z,37.38
2018-05-11T11:46:20.477Z,36.75
2018-05-11T11:48:53.075Z,35.48
2018-05-11T11:51:25.927Z,32.83
2018-05-11T11:53:58.770Z,34.87
2018-05-11T11:56:29.988Z,33.47
2018-05-11T11:59:03.135Z,34.68
2018-05-11T12:01:34.470Z,31.38
2018-05-11T12:04:06.141Z,34.16
2018-05-11T12:06:37.954Z,33.55
2018-05-11T12:09:08.820Z,32.84
2018-05-11T12:11:40.390Z,34.85
2018-05-11T12:14:12.546Z,36.46
2018-05-11T12:16:44.447Z,35.28
2018-05-11T12:19:15.671Z,36.12
2018-05-11T12:21:47.065Z,37.65
2018-05-11T12:24:18.374Z,36.72
2018-05-11T12:26:50.010Z,37.17
2018-05-11T12:29:21.672Z,35.87
2018-05-11T12:31:52.745Z,37.57
2018-05-11T12:34:23.238Z,37.47
2018-05-11T12:36:54.694Z,34.78
2018-05-11T12:39:25.615Z,32.42
2018-05-11T12:41:57.338Z,34.39
2018-05-11T12:44:28.451Z,37.02
2018-05-11T12:46:59.883Z,37.42
2018-05-11T12:49:31.125Z,38.00
2018-05-11T12:52:01.184Z,38.10
2018-05-11T12:54:32.763Z,38.14
2018-05-11T12:57:04.602Z,35.41
2018-05-11T12:59:35.159Z,37.34
2018-05-11T13:02:06.764Z,36.27
2018-05-11T13:04:37.358Z,34.13
2018-05-11T13:07:08.716Z,34.06
2018-05-11T13:09:39.706Z,37.70
2018-05-11T13:12:10.208Z,37.42
2018-05-11T13:14:42.122Z,38.78
2018-05-11T13:17:14.178Z,39.71
2018-05-11T13:19:45.090Z,40.48
2018-05-11T13:22:16.068Z,35.49
2018-05-11T13:24:47.985Z,36.72
2018-05-11T13:27:18.638Z,36.82
2018-05-11T13:29:50.309Z,38.31
2018-05-11T13:32:21.744Z,38.72
2018-05-11T13:34:53.930Z,36.88
2018-05-11T13:37:25.299Z,37.81
2018-05-11T13:39:57.761Z,37.53
2018-05-11T13:42:29.563Z,37.51
2018-05-11T13:45:01.960Z,37.78
2018-05-11T13:47:33.168Z,34.21
2018-05-11T13:50:04.678Z,33.87
2018-05-11T13:52:35.829Z,36.29
2018-05-11T13:55:07.720Z,37.52
2018-05-11T13:57:39.000Z,39.08
2018-05-11T14:00:10.863Z,38.84
2018-05-11T14:02:43.594Z,39.43
2018-05-11T14:05:14.863Z,39.72
2018-05-11T14:07:46.975Z,38.15
2018-05-11T14:10:18.784Z,35.12
2018-05-11T14:12:50.285Z,35.81
2018-05-11T14:15:20.890Z,36.85
2018-05-11T14:17:52.183Z,38.11
2018-05-11T14:20:23.941Z,38.08
2018-05-11T14:22:57.677Z,37.60
2018-05-11T14:25:34.838Z,36.47
2018-05-11T14:28:06.121Z,39.28
2018-05-11T14:30:37.836Z,40.73
2018-05-11T14:33:08.197Z,39.65
2018-05-11T14:35:39.001Z,39.19
2018-05-11T14:38:10.129Z,40.39
2018-05-11T14:40:41.817Z,39.53
2018-05-11T14:43:14.149Z,38.28
2018-05-11T14:45:45.337Z,39.98
2018-05-11T14:48:16.471Z,40.40
2018-05-11T14:50:48.359Z,39.98
2018-05-11T14:53:20.283Z,39.93
2018-05-11T14:55:51.514Z,40.21
2018-05-11T14:58:22.295Z,40.55
2018-05-11T15:00:53.281Z,40.26
2018-05-11T15:03:24.393Z,37.96
2018-05-11T15:05:56.199Z,38.48
2018-05-11T15:08:27.124Z,36.47
2018-05-11T15:10:57.686Z,34.27
2018-05-11T15:13:28.697Z,34.67
2018-05-11T15:16:00.013Z,37.42
2018-05-11T15:18:31.852Z,38.60
2018-05-11T15:21:01.707Z,37.93
2018-05-11T15:23:32.987Z,36.87
2018-05-11T15:26:03.149Z,36.89
2018-05-11T15:28:34.436Z,36.07
2018-05-11T15:31:04.156Z,37.38
2018-05-11T15:33:36.137Z,37.68
2018-05-11T15:36:06.766Z,37.98
2018-05-11T15:38:37.349Z,38.48
2018-05-11T15:41:08.847Z,38.15
2018-05-11T15:43:40.152Z,39.26
2018-05-11T15:46:10.424Z,39.15
2018-05-11T15:48:41.084Z,39.27
2018-05-11T15:51:12.339Z,39.34
2018-05-11T15:53:43.529Z,39.45
2018-05-11T15:56:14.700Z,39.27
2018-05-11T15:58:45.736Z,37.18
2018-05-11T16:01:16.763Z,37.95
2018-05-11T16:03:48.291Z,38.52
2018-05-11T16:06:18.317Z,37.95
2018-05-11T16:08:49.147Z,35.26
2018-05-11T16:11:19.328Z,31.94
2018-05-11T16:13:50.383Z,34.02
2018-05-11T16:16:21.841Z,33.68
2018-05-11T16:18:52.933Z,33.90
2018-05-11T16:21:24.091Z,32.51
2018-05-11T16:23:54.453Z,31.02
2018-05-11T16:26:24.853Z,29.85
2018-05-11T16:28:57.655Z,28.35
2018-05-11T16:31:28.759Z,27.82
2018-05-11T16:33:59.555Z,27.58
2018-05-11T16:36:30.160Z,26.00
2018-05-11T16:39:01.235Z,25.82
2018-05-11T16:41:33.410Z,24.92
2018-05-11T16:44:04.604Z,25.15
2018-05-11T16:46:35.656Z,24.97
2018-05-11T16:49:07.220Z,24.76
2018-05-11T16:51:38.529Z,24.59
2018-05-11T16:54:10.072Z,24.61
2018-05-11T16:56:41.882Z,24.29
2018-05-11T16:59:13.109Z,24.11
2018-05-11T17:01:44.789Z,23.76
2018-05-11T17:04:16.021Z,23.73
2018-05-11T17:06:47.165Z,23.74
2018-05-11T17:09:18.447Z,23.45
2018-05-11T17:11:50.186Z,23.26
2018-05-11T17:14:21.396Z,23.05
2018-05-11T17:16:52.564Z,22.98
2018-05-11T17:19:23.847Z,22.87
2018-05-11T17:21:55.332Z,22.62
2018-05-11T17:24:25.755Z,22.40
2018-05-11T17:26:57.568Z,22.34
2018-05-11T17:29:29.072Z,22.12
2018-05-11T17:32:02.199Z,21.90
2018-05-11T17:34:33.872Z,21.73
2018-05-11T17:37:05.610Z,21.66
2018-05-11T17:39:37.072Z,21.48
2018-05-11T17:42:08.016Z,21.41
2018-05-11T17:44:39.971Z,21.37
2018-05-11T17:47:11.475Z,21.25
2018-05-11T17:49:42.623Z,21.13
2018-05-11T17:52:13.972Z,20.94
2018-05-11T17:54:45.011Z,20.84
2018-05-11T17:57:16.405Z,20.67
2018-05-11T17:59:47.973Z,20.64
2018-05-11T18:02:19.470Z,20.53
2018-05-11T18:04:51.464Z,20.32
2018-05-11T18:07:21.649Z,20.12
2018-05-11T18:09:53.020Z,20.00
2018-05-11T18:12:24.643Z,19.86
2018-05-11T18:14:55.500Z,19.71
2018-05-11T18:17:27.008Z,19.72
2018-05-11T18:19:59.399Z,19.62
2018-05-11T18:22:31.984Z,19.61
2018-05-11T18:25:03.972Z,19.25
2018-05-11T18:27:35.559Z,19.04
2018-05-11T18:30:07.246Z,18.87
2018-05-11T18:32:38.881Z,18.59
2018-05-11T18:35:10.408Z,18.38
2018-05-11T18:37:43.078Z,18.20
2018-05-11T18:40:15.322Z,18.04
2018-05-11T18:42:48.592Z,17.88
2018-05-11T18:45:20.189Z,17.75
2018-05-11T18:47:51.090Z,17.61
2018-05-11T18:50:21.547Z,17.50
2018-05-11T18:52:53.004Z,17.35
2018-05-11T18:55:24.348Z,17.19
2018-05-11T18:57:55.394Z,17.08
2018-05-11T19:00:27.070Z,17.15
2018-05-11T19:02:59.155Z,17.14
2018-05-11T19:05:30.169Z,16.93
2018-05-11T19:08:01.671Z,16.75
2018-05-11T19:10:31.201Z,16.60
2018-05-11T19:13:02.761Z,16.49
2018-05-11T19:15:33.869Z,16.37
2018-05-11T19:18:05.142Z,16.25
2018-05-11T19:20:37.316Z,16.13
2018-05-11T19:23:09.340Z,16.04
2018-05-11T19:25:41.074Z,15.98
2018-05-11T19:28:13.821Z,15.94
2018-05-11T19:30:44.463Z,15.91
2018-05-11T19:33:15.333Z,15.87
2018-05-11T19:35:47.451Z,15.79
2018-05-11T19:38:20.040Z,15.60
2018-05-11T19:40:51.662Z,15.43
2018-05-11T19:43:23.071Z,15.32
2018-05-11T19:45:54.255Z,15.23
2018-05-11T19:48:25.291Z,15.14
2018-05-11T19:50:55.425Z,15.04
2018-05-11T19:53:27.490Z,15.05
2018-05-11T19:55:58.779Z,15.10
2018-05-11T19:58:30.909Z,15.05
2018-05-11T20:01:02.391Z,14.78
2018-05-11T20:03:33.659Z,14.72
2018-05-11T20:06:05.478Z,14.52
2018-05-11T20:08:37.602Z,14.39
2018-05-11T20:11:09.437Z,14.34
2018-05-11T20:13:41.042Z,14.27
2018-05-11T20:16:12.532Z,14.19
2018-05-11T20:18:44.214Z,14.12
2018-05-11T20:21:15.872Z,14.06
2018-05-11T20:23:48.480Z,14.01
2018-05-11T20:26:20.662Z,13.99
2018-05-11T20:28:51.359Z,13.96
2018-05-11T20:31:23.256Z,13.91
2018-05-11T20:33:54.845Z,13.82
2018-05-11T20:36:26.989Z,13.79
2018-05-11T20:38:58.272Z,13.70
2018-05-11T20:41:31.572Z,13.58
2018-05-11T20:44:03.622Z,13.50
2018-05-11T20:46:35.687Z,13.42
2018-05-11T20:49:08.985Z,13.38
2018-05-11T20:51:41.743Z,13.35
2018-05-11T20:54:13.598Z,13.34
2018-05-11T20:56:44.537Z,13.28
2018-05-11T20:59:16.353Z,13.27
2018-05-11T21:01:47.284Z,13.25
2018-05-11T21:04:18.989Z,13.26
2018-05-11T21:06:49.868Z,13.24
2018-05-11T21:09:21.314Z,13.22
2018-05-11T21:11:53.084Z,13.19
2018-05-11T21:14:26.159Z,13.11
2018-05-11T21:16:57.955Z,13.02
2018-05-11T21:19:29.697Z,12.98
2018-05-11T21:22:02.496Z,13.00
2018-05-11T21:24:36.508Z,12.96
2018-05-11T21:27:08.413Z,12.96
2018-05-11T21:29:40.150Z,12.88
2018-05-11T21:32:11.128Z,12.83
2018-05-11T21:34:43.446Z,12.81
2018-05-11T21:37:14.757Z,12.79
2018-05-11T21:39:47.172Z,12.89
2018-05-11T21:42:19.261Z,12.89
2018-05-11T21:44:50.213Z,12.98
2018-05-11T21:47:21.768Z,13.01
2018-05-11T21:49:51.890Z,12.92
2018-05-11T21:52:23.451Z,12.88
2018-05-11T21:54:54.320Z,12.82
2018-05-11T21:57:30.105Z,12.71
2018-05-11T22:00:02.302Z,12.69
2018-05-11T22:02:33.808Z,12.66
2018-05-11T22:05:05.243Z,12.64
2018-05-11T22:07:37.546Z,12.61
2018-05-11T22:10:09.035Z,12.57
2018-05-11T22:12:41.739Z,12.53
2018-05-11T22:15:14.631Z,12.46
2018-05-11T22:17:46.136Z,12.42
2018-05-11T22:20:17.317Z,12.36
2018-05-11T22:22:49.128Z,12.32
2018-05-11T22:25:20.319Z,12.27
2018-05-11T22:27:50.774Z,12.22
2018-05-11T22:30:20.872Z,12.20
2018-05-11T22:32:52.926Z,12.20
2018-05-11T22:35:24.578Z,12.19
2018-05-11T22:37:57.001Z,12.19
2018-05-11T22:40:28.796Z,12.15
2018-05-11T22:43:00.088Z,12.16
2018-05-11T22:45:32.311Z,12.16
2018-05-11T22:48:04.227Z,12.10
2018-05-11T22:50:36.045Z,12.12
2018-05-11T22:53:08.572Z,12.07
2018-05-11T22:55:41.166Z,12.05
2018-05-11T22:58:12.996Z,11.98
2018-05-11T23:00:45.164Z,11.96
2018-05-11T23:03:16.423Z,11.92
2018-05-11T23:05:48.969Z,11.90
2018-05-11T23:08:18.769Z,11.88
2018-05-11T23:10:50.133Z,11.90
2018-05-11T23:13:20.315Z,11.95
2018-05-11T23:15:52.213Z,12.02
2018-05-11T23:18:23.479Z,12.01
2018-05-11T23:20:55.462Z,12.07
2018-05-11T23:23:26.588Z,12.06
2018-05-11T23:25:58.600Z,12.05
2018-05-11T23:28:30.999Z,12.05
2018-05-11T23:31:03.137Z,12.02
2018-05-11T23:33:34.630Z,11.99
2018-05-11T23:36:06.579Z,11.98
2018-05-11T23:38:38.424Z,11.93
2018-05-11T23:41:11.124Z,11.93
2018-05-11T23:43:44.276Z,11.94
2018-05-11T23:46:16.092Z,11.96
2018-05-11T23:48:48.443Z,11.95
2018-05-11T23:51:21.057Z,11.91
2018-05-11T23:53:52.918Z,11.88
2018-05-11T23:56:24.725Z,11.89
2018-05-11T23:58:57.043Z,11.94
